createdAt,value
2022-11-12T00:01:58.270Z,84.05
2022-11-12T00:04:52.933Z,84.18
2022-11-12T00:07:49.384Z,84.26
2022-11-12T00:10:44.531Z,84.32
2022-11-12T00:13:39.117Z,84.26
2022-11-12T00:16:33.799Z,84.21
2022-11-12T00:19:28.493Z,84.36
2022-11-12T00:22:23.677Z,84.56
2022-11-12T00:25:18.673Z,84.50
2022-11-12T00:28:14.650Z,84.57
2022-11-12T00:31:15.396Z,84.72
2022-11-12T00:34:09.780Z,84.86
2022-11-12T00:37:05.183Z,84.94
2022-11-12T00:40:00.007Z,85.01
2022-11-12T00:42:56.371Z,84.85
2022-11-12T00:45:50.838Z,84.92
2022-11-12T00:48:45.198Z,85.03
2022-11-12T00:51:40.009Z,85.10
2022-11-12T00:54:34.281Z,85.13
2022-11-12T00:57:29.092Z,85.29
2022-11-12T01:00:25.069Z,85.51
2022-11-12T01:03:19.695Z,85.79
2022-11-12T01:06:18.405Z,85.82
2022-11-12T01:09:13.464Z,85.90
2022-11-12T01:12:09.019Z,85.91
2022-11-12T01:15:03.697Z,85.87
2022-11-12T01:17:59.093Z,86.04
2022-11-12T01:20:53.687Z,86.14
2022-11-12T01:23:48.314Z,86.24
2022-11-12T01:26:44.057Z,86.10
2022-11-12T01:29:38.814Z,85.98
2022-11-12T01:32:37.850Z,85.92
2022-11-12T01:35:32.738Z,86.10
2022-11-12T01:38:28.066Z,86.10
2022-11-12T01:41:27.753Z,86.11
2022-11-12T01:44:26.983Z,86.14
2022-11-12T01:47:29.334Z,86.08
2022-11-12T01:50:28.019Z,86.06
2022-11-12T01:53:27.792Z,86.07
2022-11-12T01:56:25.418Z,86.27
2022-11-12T01:59:26.697Z,86.29
2022-11-12T02:02:21.896Z,86.33
2022-11-12T02:05:18.705Z,86.47
2022-11-12T02:08:15.307Z,86.50
2022-11-12T02:11:20.994Z,86.67
2022-11-12T02:14:17.047Z,86.70
2022-11-12T02:17:12.060Z,86.77
2022-11-12T02:20:09.644Z,86.73
2022-11-12T02:23:04.600Z,86.75
2022-11-12T02:26:00.856Z,86.97
2022-11-12T02:28:55.433Z,86.99
2022-11-12T02:31:50.234Z,86.96
2022-11-12T02:34:45.560Z,86.91
2022-11-12T02:37:40.066Z,86.91
2022-11-12T02:40:35.408Z,86.90
2022-11-12T02:43:30.368Z,86.95
2022-11-12T02:46:25.462Z,87.06
2022-11-12T02:49:20.141Z,87.24
2022-11-12T02:52:15.241Z,87.37
2022-11-12T02:55:13.228Z,87.42
2022-11-12T02:58:07.879Z,87.60
2022-11-12T03:01:02.573Z,87.60
2022-11-12T03:03:57.421Z,87.70
2022-11-12T03:06:52.616Z,87.81
2022-11-12T03:09:47.418Z,87.91
2022-11-12T03:12:42.118Z,87.83
2022-11-12T03:15:37.003Z,87.85
2022-11-12T03:18:31.790Z,87.89
2022-11-12T03:21:26.472Z,87.90
2022-11-12T03:24:21.416Z,87.97
2022-11-12T03:27:16.552Z,88.04
2022-11-12T03:30:13.559Z,88.06
2022-11-12T03:33:10.485Z,88.05
2022-11-12T03:36:06.645Z,88.01
2022-11-12T03:39:00.954Z,88.00
2022-11-12T03:41:55.847Z,87.98
2022-11-12T03:44:50.925Z,88.00
2022-11-12T03:47:50.383Z,87.91
2022-11-12T03:50:45.284Z,87.88
2022-11-12T03:53:40.178Z,87.76
2022-11-12T03:56:34.879Z,87.68
2022-11-12T03:59:29.268Z,87.61
2022-11-12T04:02:25.683Z,87.61
2022-11-12T04:05:38.352Z,87.56
2022-11-12T04:08:39.396Z,87.57
2022-11-12T04:11:34.089Z,87.57
2022-11-12T04:14:28.941Z,87.55
2022-11-12T04:17:41.122Z,87.49
2022-11-12T04:20:53.320Z,87.34
2022-11-12T04:23:47.798Z,87.34
2022-11-12T04:26:42.490Z,87.32
2022-11-12T04:29:54.564Z,87.36
2022-11-12T04:32:56.972Z,87.41
2022-11-12T04:35:51.498Z,87.50
2022-11-12T04:38:45.847Z,87.50
2022-11-12T04:41:54.613Z,87.34
2022-11-12T04:45:02.755Z,87.35
2022-11-12T04:47:57.360Z,87.36
2022-11-12T04:50:57.874Z,87.46
2022-11-12T04:53:52.330Z,87.52
2022-11-12T04:56:47.200Z,87.61
2022-11-12T04:59:41.715Z,87.69
2022-11-12T05:02:36.597Z,87.61
2022-11-12T05:05:33.803Z,87.90
2022-11-12T05:08:29.255Z,88.00
2022-11-12T05:11:24.643Z,87.95
2022-11-12T05:14:19.438Z,87.94
2022-11-12T05:17:14.017Z,87.82
2022-11-12T05:20:11.437Z,87.90
2022-11-12T05:23:07.357Z,88.00
2022-11-12T05:26:02.572Z,87.97
2022-11-12T05:28:57.163Z,87.90
2022-11-12T05:31:51.805Z,87.90
2022-11-12T05:34:46.932Z,87.92
2022-11-12T05:37:41.825Z,87.97
2022-11-12T05:40:37.299Z,88.08
2022-11-12T05:43:32.001Z,88.29
2022-11-12T05:46:27.408Z,88.34
2022-11-12T05:49:22.296Z,88.31
2022-11-12T05:52:16.863Z,88.30
2022-11-12T05:55:13.440Z,88.39
2022-11-12T05:58:11.406Z,88.33
2022-11-12T06:01:07.257Z,88.18
2022-11-12T06:04:02.266Z,88.10
2022-11-12T06:06:56.528Z,88.10
2022-11-12T06:09:50.911Z,88.17
2022-11-12T06:12:45.386Z,88.22
2022-11-12T06:15:39.870Z,88.25
2022-11-12T06:18:34.213Z,88.41
2022-11-12T06:21:28.944Z,88.67
2022-11-12T06:24:24.476Z,88.75
2022-11-12T06:27:19.142Z,88.79
2022-11-12T06:30:15.866Z,88.81
2022-11-12T06:33:10.754Z,88.89
2022-11-12T06:36:08.030Z,88.85
2022-11-12T06:39:02.378Z,88.99
2022-11-12T06:41:57.306Z,88.92
2022-11-12T06:44:51.723Z,88.92
2022-11-12T06:47:46.500Z,88.99
2022-11-12T06:50:41.330Z,88.95
2022-11-12T06:53:35.574Z,88.88
2022-11-12T06:56:30.150Z,88.74
2022-11-12T06:59:24.851Z,88.67
2022-11-12T07:02:19.773Z,88.59
2022-11-12T07:05:15.042Z,88.45
2022-11-12T07:08:10.717Z,88.38
2022-11-12T07:11:06.203Z,88.25
2022-11-12T07:14:00.675Z,88.05
2022-11-12T07:16:55.810Z,87.97
2022-11-12T07:19:50.397Z,87.74
2022-11-12T07:22:44.866Z,87.69
2022-11-12T07:25:39.960Z,87.60
2022-11-12T07:28:34.825Z,87.30
2022-11-12T07:31:29.455Z,87.06
2022-11-12T07:34:24.073Z,86.72
2022-11-12T07:37:18.592Z,86.40
2022-11-12T07:40:16.263Z,85.78
2022-11-12T07:43:11.106Z,85.59
2022-11-12T07:46:10.975Z,84.98
2022-11-12T07:49:06.225Z,84.53
2022-11-12T07:52:00.667Z,84.38
2022-11-12T07:54:55.500Z,83.73
2022-11-12T07:57:50.170Z,83.06
2022-11-12T08:00:44.896Z,82.76
2022-11-12T08:03:39.648Z,81.79
2022-11-12T08:06:35.937Z,81.22
2022-11-12T08:09:30.877Z,80.52
2022-11-12T08:12:25.413Z,79.95
2022-11-12T08:15:20.618Z,79.20
2022-11-12T08:18:15.011Z,79.37
2022-11-12T08:21:14.467Z,78.24
2022-11-12T08:24:10.824Z,77.67
2022-11-12T08:27:05.506Z,78.01
2022-11-12T08:30:00.018Z,77.11
2022-11-12T08:33:01.483Z,75.64
2022-11-12T08:35:55.857Z,74.92
2022-11-12T08:38:53.269Z,74.57
2022-11-12T08:41:47.897Z,73.85
2022-11-12T08:44:42.775Z,73.41
2022-11-12T08:47:36.987Z,72.93
2022-11-12T08:50:32.715Z,73.16
2022-11-12T08:53:28.929Z,73.37
2022-11-12T08:56:23.629Z,72.77
2022-11-12T08:59:18.090Z,72.11
2022-11-12T09:02:17.854Z,72.20
2022-11-12T09:05:13.693Z,71.73
2022-11-12T09:08:11.762Z,71.61
2022-11-12T09:11:06.860Z,71.33
2022-11-12T09:14:01.332Z,71.35
2022-11-12T09:16:56.456Z,71.49
2022-11-12T09:19:51.634Z,71.13
2022-11-12T09:22:45.970Z,70.89
2022-11-12T09:25:42.397Z,70.73
2022-11-12T09:28:37.127Z,70.49
2022-11-12T09:31:33.104Z,70.54
2022-11-12T09:34:27.628Z,69.71
2022-11-12T09:37:22.297Z,69.71
2022-11-12T09:40:23.771Z,69.99
2022-11-12T09:43:24.965Z,69.69
2022-11-12T09:46:39.066Z,69.47
2022-11-12T09:49:42.301Z,69.90
2022-11-12T09:52:38.312Z,69.41
2022-11-12T09:55:40.813Z,68.46
2022-11-12T09:58:36.564Z,68.45
2022-11-12T10:01:51.426Z,68.33
2022-11-12T10:05:18.991Z,68.84
2022-11-12T10:08:41.469Z,68.71
2022-11-12T10:12:32.536Z,68.89
2022-11-12T10:16:16.122Z,68.83
2022-11-12T10:19:35.166Z,68.36
2022-11-12T10:22:54.334Z,68.79
2022-11-12T10:25:54.020Z,68.29
2022-11-12T10:28:59.010Z,67.86
2022-11-12T10:31:53.467Z,67.94
2022-11-12T10:34:48.292Z,68.02
2022-11-12T10:37:51.773Z,68.40
2022-11-12T10:40:46.976Z,67.85
2022-11-12T10:43:56.586Z,68.06
2022-11-12T10:46:51.472Z,67.29
2022-11-12T10:50:00.373Z,67.08
2022-11-12T10:53:05.258Z,66.29
2022-11-12T10:56:06.082Z,66.35
2022-11-12T10:59:20.375Z,66.79
2022-11-12T11:02:22.572Z,66.49
2022-11-12T11:05:49.897Z,66.47
2022-11-12T11:08:49.303Z,65.82
2022-11-12T11:11:54.668Z,65.81
2022-11-12T11:15:05.454Z,65.84
2022-11-12T11:18:00.503Z,66.17
2022-11-12T11:21:09.800Z,65.50
2022-11-12T11:24:22.808Z,65.54
2022-11-12T11:27:34.597Z,65.43
2022-11-12T11:30:29.538Z,65.35
2022-11-12T11:33:44.002Z,65.68
2022-11-12T11:36:51.390Z,64.71
2022-11-12T11:40:00.464Z,65.43
2022-11-12T11:43:22.051Z,64.79
2022-11-12T11:46:34.972Z,65.02
2022-11-12T11:50:06.415Z,64.85
2022-11-12T11:53:20.732Z,64.93
2022-11-12T11:56:27.416Z,65.41
2022-11-12T11:59:42.217Z,65.05
2022-11-12T12:03:08.485Z,65.42
2022-11-12T12:06:24.686Z,65.38
2022-11-12T12:09:38.556Z,65.73
2022-11-12T12:12:55.136Z,65.55
2022-11-12T12:16:19.081Z,65.96
2022-11-12T12:19:34.342Z,65.93
2022-11-12T12:22:41.932Z,65.89
2022-11-12T12:25:43.076Z,65.91
2022-11-12T12:28:48.275Z,66.07
2022-11-12T12:31:50.579Z,65.75
2022-11-12T12:34:50.031Z,65.93
2022-11-12T12:37:58.112Z,66.11
2022-11-12T12:41:03.853Z,66.14
2022-11-12T12:44:06.608Z,66.08
2022-11-12T12:47:05.164Z,66.00
2022-11-12T12:50:04.668Z,66.16
2022-11-12T12:53:35.223Z,66.13
2022-11-12T12:56:52.178Z,66.04
2022-11-12T12:59:46.964Z,66.08
2022-11-12T13:02:44.089Z,66.40
2022-11-12T13:05:40.753Z,66.10
2022-11-12T13:08:40.529Z,66.19
2022-11-12T13:12:15.128Z,66.11
2022-11-12T13:15:18.988Z,66.27
2022-11-12T13:19:00.761Z,66.40
2022-11-12T13:22:51.784Z,66.49
2022-11-12T13:25:46.473Z,66.69
2022-11-12T13:29:18.501Z,66.63
2022-11-12T13:32:56.724Z,66.80
2022-11-12T13:35:51.494Z,66.89
2022-11-12T13:38:47.104Z,66.97
2022-11-12T13:41:59.527Z,67.01
2022-11-12T13:44:56.261Z,67.05
2022-11-12T13:47:52.856Z,67.04
2022-11-12T13:50:57.346Z,67.19
2022-11-12T13:53:52.206Z,67.23
2022-11-12T13:56:46.519Z,67.35
2022-11-12T13:59:40.772Z,67.41
2022-11-12T14:02:41.320Z,67.49
2022-11-12T14:05:39.431Z,67.68
2022-11-12T14:09:09.445Z,67.81
2022-11-12T14:12:47.056Z,67.91
2022-11-12T14:16:24.022Z,68.09
2022-11-12T14:20:04.091Z,68.17
2022-11-12T14:23:05.112Z,68.37
2022-11-12T14:26:01.011Z,68.60
2022-11-12T14:29:01.788Z,68.69
2022-11-12T14:32:09.967Z,68.86
2022-11-12T14:35:19.923Z,69.07
2022-11-12T14:38:22.376Z,69.23
2022-11-12T14:41:25.617Z,69.37
2022-11-12T14:44:29.400Z,69.57
2022-11-12T14:47:24.610Z,69.80
2022-11-12T14:50:26.387Z,69.98
2022-11-12T14:53:25.422Z,70.22
2022-11-12T14:56:35.909Z,70.48
2022-11-12T14:59:32.199Z,70.76
2022-11-12T15:02:48.916Z,71.01
2022-11-12T15:06:12.294Z,71.28
2022-11-12T15:09:07.562Z,71.41
2022-11-12T15:12:02.881Z,71.60
2022-11-12T15:15:08.994Z,71.89
2022-11-12T15:18:07.621Z,72.29
2022-11-12T15:21:21.523Z,72.75
2022-11-12T15:24:30.519Z,73.17
2022-11-12T15:27:43.388Z,73.41
2022-11-12T15:30:39.036Z,73.58
2022-11-12T15:33:33.678Z,73.68
2022-11-12T15:36:28.801Z,73.92
2022-11-12T15:39:25.280Z,74.10
2022-11-12T15:42:29.693Z,74.38
2022-11-12T15:45:26.186Z,74.61
2022-11-12T15:48:21.404Z,74.71
2022-11-12T15:51:18.572Z,74.89
2022-11-12T15:54:12.792Z,75.02
2022-11-12T15:57:09.481Z,75.16
2022-11-12T16:00:11.715Z,75.30
2022-11-12T16:03:17.298Z,75.52
2022-11-12T16:06:14.894Z,75.77
2022-11-12T16:09:09.603Z,75.99
2022-11-12T16:12:05.281Z,76.20
2022-11-12T16:15:01.424Z,76.57
2022-11-12T16:17:57.338Z,76.96
2022-11-12T16:20:51.923Z,77.22
2022-11-12T16:23:46.801Z,77.37
2022-11-12T16:26:42.444Z,77.66
2022-11-12T16:29:37.562Z,78.00
2022-11-12T16:32:32.292Z,78.38
2022-11-12T16:35:28.207Z,78.95
2022-11-12T16:38:25.802Z,79.47
2022-11-12T16:41:20.420Z,79.87
2022-11-12T16:44:15.837Z,80.24
2022-11-12T16:47:13.683Z,80.56
2022-11-12T16:50:12.495Z,80.98
2022-11-12T16:53:07.396Z,81.14
2022-11-12T16:56:03.917Z,81.20
2022-11-12T16:58:59.707Z,81.27
2022-11-12T17:01:54.583Z,81.34
2022-11-12T17:04:50.299Z,81.51
2022-11-12T17:07:47.026Z,81.59
2022-11-12T17:10:43.984Z,81.62
2022-11-12T17:13:44.826Z,82.10
2022-11-12T17:16:45.065Z,82.49
2022-11-12T17:19:42.269Z,82.87
2022-11-12T17:22:36.960Z,83.05
2022-11-12T17:25:31.581Z,83.29
2022-11-12T17:28:26.772Z,83.53
2022-11-12T17:31:26.147Z,83.56
2022-11-12T17:34:20.899Z,83.70
2022-11-12T17:37:15.743Z,83.85
2022-11-12T17:40:13.184Z,83.96
2022-11-12T17:43:15.404Z,84.08
2022-11-12T17:46:14.690Z,84.11
2022-11-12T17:49:10.177Z,84.10
2022-11-12T17:52:04.919Z,84.10
2022-11-12T17:54:59.566Z,83.98
2022-11-12T17:57:55.764Z,83.87
2022-11-12T18:00:51.763Z,83.78
2022-11-12T18:03:50.427Z,83.77
2022-11-12T18:06:44.894Z,83.80
2022-11-12T18:09:39.793Z,83.72
2022-11-12T18:12:35.499Z,84.17
2022-11-12T18:15:31.739Z,84.13
2022-11-12T18:18:26.373Z,84.09
2022-11-12T18:21:21.651Z,84.11
2022-11-12T18:24:20.042Z,84.42
2022-11-12T18:27:15.514Z,84.54
2022-11-12T18:30:18.979Z,84.42
2022-11-12T18:33:14.721Z,84.64
2022-11-12T18:36:14.347Z,84.59
2022-11-12T18:39:09.801Z,84.18
2022-11-12T18:42:04.366Z,84.16
2022-11-12T18:44:59.155Z,84.44
2022-11-12T18:47:53.647Z,84.69
2022-11-12T18:50:48.208Z,84.87
2022-11-12T18:53:43.928Z,85.00
2022-11-12T18:56:40.181Z,85.28
2022-11-12T18:59:34.799Z,85.35
2022-11-12T19:02:29.621Z,85.42
2022-11-12T19:05:24.779Z,85.56
2022-11-12T19:08:19.834Z,85.60
2022-11-12T19:11:18.696Z,85.70
2022-11-12T19:14:13.788Z,85.83
2022-11-12T19:17:08.328Z,85.91
2022-11-12T19:20:02.946Z,86.04
2022-11-12T19:22:57.720Z,86.16
2022-11-12T19:25:52.342Z,86.41
2022-11-12T19:28:47.674Z,86.90
2022-11-12T19:31:42.562Z,86.90
2022-11-12T19:34:37.591Z,86.90
2022-11-12T19:37:33.884Z,86.94
2022-11-12T19:40:28.738Z,86.90
2022-11-12T19:43:24.716Z,87.09
2022-11-12T19:46:19.941Z,87.13
2022-11-12T19:49:17.305Z,87.00
2022-11-12T19:52:12.512Z,86.96
2022-11-12T19:55:08.829Z,86.93
2022-11-12T19:58:03.335Z,86.91
2022-11-12T20:01:03.664Z,86.89
2022-11-12T20:03:58.510Z,86.91
2022-11-12T20:06:53.714Z,86.90
2022-11-12T20:09:48.421Z,86.87
2022-11-12T20:12:44.217Z,86.89
2022-11-12T20:15:40.308Z,86.90
2022-11-12T20:18:35.405Z,86.90
2022-11-12T20:21:31.044Z,86.90
2022-11-12T20:24:26.106Z,86.91
2022-11-12T20:27:20.895Z,86.90
2022-11-12T20:30:17.342Z,86.92
2022-11-12T20:33:15.170Z,86.90
2022-11-12T20:36:13.932Z,86.90
2022-11-12T20:39:08.715Z,86.89
2022-11-12T20:42:03.496Z,86.91
2022-11-12T20:44:58.222Z,86.90
2022-11-12T20:47:53.339Z,86.92
2022-11-12T20:51:16.787Z,86.90
2022-11-12T20:54:03.613Z,86.85
2022-11-12T20:56:59.967Z,86.81
2022-11-12T20:59:58.437Z,86.80
2022-11-12T21:02:53.124Z,86.80
2022-11-12T21:05:47.858Z,86.76
2022-11-12T21:08:44.315Z,86.76
2022-11-12T21:11:38.714Z,86.68
2022-11-12T21:14:33.335Z,86.66
2022-11-12T21:17:28.177Z,86.60
2022-11-12T21:20:23.275Z,86.61
2022-11-12T21:23:17.846Z,86.60
2022-11-12T21:26:16.884Z,86.55
2022-11-12T21:29:13.523Z,86.49
2022-11-12T21:32:10.266Z,86.38
2022-11-12T21:35:05.195Z,86.43
2022-11-12T21:37:59.689Z,86.40
2022-11-12T21:41:01.730Z,86.39
2022-11-12T21:43:56.586Z,86.39
2022-11-12T21:46:51.132Z,86.41
2022-11-12T21:49:45.861Z,86.37
2022-11-12T21:52:41.570Z,86.36
2022-11-12T21:55:36.376Z,86.25
2022-11-12T21:58:32.579Z,86.25
2022-11-12T22:01:30.355Z,86.31
2022-11-12T22:04:25.171Z,86.30
2022-11-12T22:07:19.813Z,86.30
2022-11-12T22:10:15.103Z,86.30
2022-11-12T22:13:26.309Z,86.22
2022-11-12T22:16:22.342Z,86.26
2022-11-12T22:19:19.427Z,86.20
2022-11-12T22:22:14.451Z,86.17
2022-11-12T22:25:10.493Z,86.20
2022-11-12T22:28:05.195Z,86.15
2022-11-12T22:31:05.814Z,86.19
2022-11-12T22:34:02.417Z,86.15
2022-11-12T22:36:57.308Z,86.18
2022-11-12T22:39:51.617Z,86.10
2022-11-12T22:42:46.044Z,86.11
2022-11-12T22:45:41.701Z,86.11
2022-11-12T22:48:36.866Z,85.98
2022-11-12T22:51:34.696Z,86.00
2022-11-12T22:54:29.272Z,86.10
2022-11-12T22:57:23.712Z,86.02
2022-11-12T23:00:31.803Z,85.90
2022-11-12T23:03:26.792Z,85.81
2022-11-12T23:06:22.771Z,85.80
2022-11-12T23:09:20.383Z,85.83
2022-11-12T23:12:15.153Z,85.89
2022-11-12T23:15:14.026Z,85.83
2022-11-12T23:18:08.853Z,85.80
2022-11-12T23:21:15.058Z,85.80
2022-11-12T23:24:10.787Z,85.81
2022-11-12T23:27:05.383Z,85.73
2022-11-12T23:29:59.898Z,85.63
2022-11-12T23:32:54.835Z,85.55
2022-11-12T23:35:49.226Z,85.50
2022-11-12T23:38:44.115Z,85.40
2022-11-12T23:41:38.341Z,85.46
2022-11-12T23:44:32.860Z,85.42
2022-11-12T23:47:27.588Z,85.38
2022-11-12T23:50:22.746Z,85.33
2022-11-12T23:53:17.280Z,85.28
2022-11-12T23:56:16.028Z,85.22
2022-11-12T23:59:10.653Z,85.28
